sensor_id;sensor_type;location;lat;lon;timestamp;pressure;altitude;pressure_sealevel;temperature;humidity
72896;BME280;61036;53.224;6.554;2023-04-09T00:01:09;102746.72;;;9.37;100.00
72896;BME280;61036;53.224;6.554;2023-04-09T00:03:35;102749.66;;;9.31;100.00
72896;BME280;61036;53.224;6.554;2023-04-09T00:06:01;102743.00;;;9.18;100.00
72896;BME280;61036;53.224;6.554;2023-04-09T00:08:27;102749.69;;;9.29;100.00
72896;BME280;61036;53.224;6.554;2023-04-09T00:10:52;102758.97;;;9.22;100.00
72896;BME280;61036;53.224;6.554;2023-04-09T00:13:18;102744.16;;;9.34;100.00
72896;BME280;61036;53.224;6.554;2023-04-09T00:15:45;102753.22;;;9.31;100.00
72896;BME280;61036;53.224;6.554;2023-04-09T00:18:11;102756.75;;;9.33;100.00
72896;BME280;61036;53.224;6.554;2023-04-09T00:20:37;102752.13;;;9.13;100.00
72896;BME280;61036;53.224;6.554;2023-04-09T00:23:03;102756.28;;;9.22;100.00
72896;BME280;61036;53.224;6.554;2023-04-09T00:25:28;102753.47;;;9.02;100.00
72896;BME280;61036;53.224;6.554;2023-04-09T00:27:54;102761.25;;;8.86;100.00
72896;BME280;61036;53.224;6.554;2023-04-09T00:30:20;102764.44;;;8.96;100.00
72896;BME280;61036;53.224;6.554;2023-04-09T00:32:46;102749.91;;;9.01;100.00
72896;BME280;61036;53.224;6.554;2023-04-09T00:35:12;102747.69;;;9.12;100.00
72896;BME280;61036;53.224;6.554;2023-04-09T00:37:37;102752.47;;;9.28;100.00
72896;BME280;61036;53.224;6.554;2023-04-09T00:40:03;102746.38;;;9.23;100.00
72896;BME280;61036;53.224;6.554;2023-04-09T00:42:33;102751.41;;;9.32;100.00
72896;BME280;61036;53.224;6.554;2023-04-09T00:44:59;102743.41;;;9.07;100.00
72896;BME280;61036;53.224;6.554;2023-04-09T00:47:25;102744.91;;;9.37;100.00
72896;BME280;61036;53.224;6.554;2023-04-09T00:49:53;102745.22;;;9.06;100.00
72896;BME280;61036;53.224;6.554;2023-04-09T00:52:19;102745.69;;;9.18;100.00
72896;BME280;61036;53.224;6.554;2023-04-09T00:54:46;102739.25;;;9.22;100.00
72896;BME280;61036;53.224;6.554;2023-04-09T00:57:12;102741.97;;;9.20;100.00
72896;BME280;61036;53.224;6.554;2023-04-09T00:59:39;102739.59;;;9.12;100.00
72896;BME280;61036;53.224;6.554;2023-04-09T01:02:04;102739.44;;;8.93;100.00
72896;BME280;61036;53.224;6.554;2023-04-09T01:04:30;102741.19;;;8.95;100.00
72896;BME280;61036;53.224;6.554;2023-04-09T01:07:53;102733.88;;;9.44;100.00
72896;BME280;61036;53.224;6.554;2023-04-09T01:10:13;102728.69;;;9.39;100.00
72896;BME280;61036;53.224;6.554;2023-04-09T01:13:15;102720.31;;;9.23;100.00
72896;BME280;61036;53.224;6.554;2023-04-09T01:15:51;102714.81;;;9.26;100.00
72896;BME280;61036;53.224;6.554;2023-04-09T01:21:06;102710.28;;;9.05;100.00
72896;BME280;61036;53.224;6.554;2023-04-09T01:24:09;102714.66;;;9.31;100.00
72896;BME280;61036;53.224;6.554;2023-04-09T01:27:07;102710.78;;;9.38;100.00
72896;BME280;61036;53.224;6.554;2023-04-09T01:29:57;102708.53;;;9.04;100.00
72896;BME280;61036;53.224;6.554;2023-04-09T01:32:24;102705.31;;;9.18;100.00
72896;BME280;61036;53.224;6.554;2023-04-09T01:34:50;102715.50;;;9.09;100.00
72896;BME280;61036;53.224;6.554;2023-04-09T01:37:17;102711.88;;;8.87;100.00
72896;BME280;61036;53.224;6.554;2023-04-09T01:39:44;102709.41;;;9.04;100.00
72896;BME280;61036;53.224;6.554;2023-04-09T01:42:11;102704.53;;;9.14;100.00
72896;BME280;61036;53.224;6.554;2023-04-09T01:44:40;102707.31;;;9.12;100.00
72896;BME280;61036;53.224;6.554;2023-04-09T01:47:07;102709.06;;;9.35;100.00
72896;BME280;61036;53.224;6.554;2023-04-09T01:49:34;102708.06;;;9.38;100.00
72896;BME280;61036;53.224;6.554;2023-04-09T01:52:01;102718.59;;;9.22;100.00
72896;BME280;61036;53.224;6.554;2023-04-09T01:54:26;102705.66;;;9.08;100.00
72896;BME280;61036;53.224;6.554;2023-04-09T01:56:52;102710.59;;;9.21;100.00
72896;BME280;61036;53.224;6.554;2023-04-09T01:59:18;102717.34;;;9.31;100.00
72896;BME280;61036;53.224;6.554;2023-04-09T02:01:51;102710.22;;;9.52;100.00
72896;BME280;61036;53.224;6.554;2023-04-09T02:04:32;102708.22;;;9.11;100.00
72896;BME280;61036;53.224;6.554;2023-04-09T02:07:23;102704.25;;;9.22;100.00
72896;BME280;61036;53.224;6.554;2023-04-09T02:09:52;102700.09;;;9.13;100.00
72896;BME280;61036;53.224;6.554;2023-04-09T02:12:19;102703.31;;;9.23;100.00
72896;BME280;61036;53.224;6.554;2023-04-09T02:14:49;102699.94;;;9.39;100.00
72896;BME280;61036;53.224;6.554;2023-04-09T02:17:15;102699.03;;;9.17;100.00
72896;BME280;61036;53.224;6.554;2023-04-09T02:19:42;102699.09;;;9.39;100.00
72896;BME280;61036;53.224;6.554;2023-04-09T02:22:09;102700.63;;;9.23;100.00
72896;BME280;61036;53.224;6.554;2023-04-09T02:24:35;102702.84;;;9.11;100.00
72896;BME280;61036;53.224;6.554;2023-04-09T02:27:01;102694.97;;;9.07;100.00
72896;BME280;61036;53.224;6.554;2023-04-09T02:29:27;102693.34;;;9.03;100.00
72896;BME280;61036;53.224;6.554;2023-04-09T02:31:52;102700.28;;;9.08;100.00
72896;BME280;61036;53.224;6.554;2023-04-09T02:34:20;102698.13;;;9.18;100.00
72896;BME280;61036;53.224;6.554;2023-04-09T02:36:46;102696.19;;;9.22;100.00
72896;BME280;61036;53.224;6.554;2023-04-09T02:39:12;102692.00;;;9.36;100.00
72896;BME280;61036;53.224;6.554;2023-04-09T02:41:38;102691.97;;;9.14;100.00
72896;BME280;61036;53.224;6.554;2023-04-09T02:44:04;102691.78;;;9.19;100.00
72896;BME280;61036;53.224;6.554;2023-04-09T02:46:29;102688.03;;;9.23;100.00
72896;BME280;61036;53.224;6.554;2023-04-09T02:48:55;102684.94;;;9.10;100.00
72896;BME280;61036;53.224;6.554;2023-04-09T02:51:21;102683.59;;;8.99;100.00
72896;BME280;61036;53.224;6.554;2023-04-09T02:53:46;102679.19;;;8.98;100.00
72896;BME280;61036;53.224;6.554;2023-04-09T02:56:12;102684.31;;;9.04;100.00
72896;BME280;61036;53.224;6.554;2023-04-09T02:58:38;102680.53;;;8.86;100.00
72896;BME280;61036;53.224;6.554;2023-04-09T03:01:03;102675.91;;;8.89;100.00
72896;BME280;61036;53.224;6.554;2023-04-09T03:03:29;102682.56;;;9.03;100.00
72896;BME280;61036;53.224;6.554;2023-04-09T03:05:55;102675.38;;;9.03;100.00
72896;BME280;61036;53.224;6.554;2023-04-09T03:08:21;102675.31;;;8.81;100.00
72896;BME280;61036;53.224;6.554;2023-04-09T03:10:47;102671.81;;;8.79;100.00
72896;BME280;61036;53.224;6.554;2023-04-09T03:13:12;102680.63;;;8.59;100.00
72896;BME280;61036;53.224;6.554;2023-04-09T03:15:38;102676.84;;;8.88;100.00
72896;BME280;61036;53.224;6.554;2023-04-09T03:18:03;102675.09;;;8.64;100.00
72896;BME280;61036;53.224;6.554;2023-04-09T03:20:29;102672.06;;;8.73;100.00
72896;BME280;61036;53.224;6.554;2023-04-09T03:22:55;102666.19;;;8.62;100.00
72896;BME280;61036;53.224;6.554;2023-04-09T03:25:31;102669.81;;;8.61;100.00
72896;BME280;61036;53.224;6.554;2023-04-09T03:28:00;102667.69;;;8.69;100.00
72896;BME280;61036;53.224;6.554;2023-04-09T03:30:38;102667.94;;;8.63;100.00
72896;BME280;61036;53.224;6.554;2023-04-09T03:33:05;102666.56;;;8.76;100.00
72896;BME280;61036;53.224;6.554;2023-04-09T03:35:35;102668.19;;;8.80;100.00
72896;BME280;61036;53.224;6.554;2023-04-09T03:38:01;102672.34;;;8.89;100.00
72896;BME280;61036;53.224;6.554;2023-04-09T03:40:27;102670.78;;;9.05;100.00
72896;BME280;61036;53.224;6.554;2023-04-09T03:42:52;102670.59;;;8.88;100.00
72896;BME280;61036;53.224;6.554;2023-04-09T03:45:18;102666.94;;;8.89;100.00
72896;BME280;61036;53.224;6.554;2023-04-09T03:47:46;102659.59;;;8.70;100.00
72896;BME280;61036;53.224;6.554;2023-04-09T03:50:12;102661.56;;;8.65;100.00
72896;BME280;61036;53.224;6.554;2023-04-09T03:52:50;102668.41;;;8.51;100.00
72896;BME280;61036;53.224;6.554;2023-04-09T03:55:16;102654.56;;;8.61;100.00
72896;BME280;61036;53.224;6.554;2023-04-09T03:57:42;102659.22;;;8.56;100.00
72896;BME280;61036;53.224;6.554;2023-04-09T04:00:12;102655.91;;;8.73;100.00
72896;BME280;61036;53.224;6.554;2023-04-09T04:02:50;102657.97;;;8.66;100.00
72896;BME280;61036;53.224;6.554;2023-04-09T04:05:22;102656.34;;;8.84;100.00
72896;BME280;61036;53.224;6.554;2023-04-09T04:07:50;102658.41;;;8.78;100.00
72896;BME280;61036;53.224;6.554;2023-04-09T04:10:23;102660.06;;;8.82;100.00
72896;BME280;61036;53.224;6.554;2023-04-09T04:12:49;102658.84;;;8.90;100.00
72896;BME280;61036;53.224;6.554;2023-04-09T04:15:20;102655.44;;;8.85;100.00
72896;BME280;61036;53.224;6.554;2023-04-09T04:17:51;102666.34;;;9.04;100.00
72896;BME280;61036;53.224;6.554;2023-04-09T04:20:42;102662.91;;;9.01;100.00
72896;BME280;61036;53.224;6.554;2023-04-09T04:23:11;102662.69;;;8.83;100.00
72896;BME280;61036;53.224;6.554;2023-04-09T04:25:45;102662.31;;;8.92;100.00
72896;BME280;61036;53.224;6.554;2023-04-09T04:28:14;102666.31;;;8.82;100.00
72896;BME280;61036;53.224;6.554;2023-04-09T04:30:41;102659.81;;;8.88;100.00
72896;BME280;61036;53.224;6.554;2023-04-09T04:33:07;102660.59;;;8.91;100.00
72896;BME280;61036;53.224;6.554;2023-04-09T04:35:41;102667.94;;;9.10;100.00
72896;BME280;61036;53.224;6.554;2023-04-09T04:38:12;102664.28;;;9.11;100.00
72896;BME280;61036;53.224;6.554;2023-04-09T04:40:38;102667.81;;;9.13;100.00
72896;BME280;61036;53.224;6.554;2023-04-09T04:43:05;102663.53;;;9.07;100.00
72896;BME280;61036;53.224;6.554;2023-04-09T04:45:30;102665.66;;;8.99;100.00
72896;BME280;61036;53.224;6.554;2023-04-09T04:48:01;102673.78;;;8.98;100.00
72896;BME280;61036;53.224;6.554;2023-04-09T04:50:27;102671.34;;;8.91;100.00
72896;BME280;61036;53.224;6.554;2023-04-09T04:53:02;102671.44;;;9.12;100.00
72896;BME280;61036;53.224;6.554;2023-04-09T04:55:36;102673.22;;;9.11;100.00
72896;BME280;61036;53.224;6.554;2023-04-09T04:58:04;102677.34;;;8.98;100.00
72896;BME280;61036;53.224;6.554;2023-04-09T05:00:39;102674.56;;;8.78;100.00
72896;BME280;61036;53.224;6.554;2023-04-09T05:03:06;102675.41;;;8.78;100.00
72896;BME280;61036;53.224;6.554;2023-04-09T05:05:51;102673.63;;;8.79;100.00
72896;BME280;61036;53.224;6.554;2023-04-09T05:08:17;102669.16;;;8.78;100.00
72896;BME280;61036;53.224;6.554;2023-04-09T05:10:46;102675.63;;;8.74;100.00
72896;BME280;61036;53.224;6.554;2023-04-09T05:13:12;102669.28;;;8.75;100.00
72896;BME280;61036;53.224;6.554;2023-04-09T05:15:40;102677.94;;;9.06;100.00
72896;BME280;61036;53.224;6.554;2023-04-09T05:18:07;102672.81;;;9.00;100.00
72896;BME280;61036;53.224;6.554;2023-04-09T05:20:33;102670.88;;;8.80;100.00
72896;BME280;61036;53.224;6.554;2023-04-09T05:23:07;102675.66;;;8.96;100.00
72896;BME280;61036;53.224;6.554;2023-04-09T05:25:39;102674.63;;;8.76;100.00
72896;BME280;61036;53.224;6.554;2023-04-09T05:28:07;102680.47;;;8.64;100.00
72896;BME280;61036;53.224;6.554;2023-04-09T05:30:36;102675.53;;;8.75;100.00
72896;BME280;61036;53.224;6.554;2023-04-09T05:33:03;102686.63;;;8.91;100.00
72896;BME280;61036;53.224;6.554;2023-04-09T05:35:29;102676.09;;;8.85;100.00
72896;BME280;61036;53.224;6.554;2023-04-09T05:37:55;102684.25;;;9.05;100.00
72896;BME280;61036;53.224;6.554;2023-04-09T05:40:21;102683.72;;;8.96;100.00
72896;BME280;61036;53.224;6.554;2023-04-09T05:42:47;102681.78;;;8.99;100.00
72896;BME280;61036;53.224;6.554;2023-04-09T05:45:22;102670.97;;;9.01;100.00
72896;BME280;61036;53.224;6.554;2023-04-09T05:47:50;102666.84;;;9.14;100.00
72896;BME280;61036;53.224;6.554;2023-04-09T05:50:19;102669.13;;;8.79;100.00
72896;BME280;61036;53.224;6.554;2023-04-09T05:52:46;102664.41;;;9.08;100.00
72896;BME280;61036;53.224;6.554;2023-04-09T05:55:13;102665.97;;;8.91;100.00
72896;BME280;61036;53.224;6.554;2023-04-09T05:57:46;102667.53;;;8.74;100.00
72896;BME280;61036;53.224;6.554;2023-04-09T06:00:12;102667.66;;;8.94;100.00
72896;BME280;61036;53.224;6.554;2023-04-09T06:02:45;102672.38;;;9.11;100.00
72896;BME280;61036;53.224;6.554;2023-04-09T06:05:10;102666.78;;;8.93;100.00
72896;BME280;61036;53.224;6.554;2023-04-09T06:07:36;102669.06;;;8.81;100.00
72896;BME280;61036;53.224;6.554;2023-04-09T06:10:02;102671.03;;;8.99;100.00
72896;BME280;61036;53.224;6.554;2023-04-09T06:12:27;102672.91;;;8.97;100.00
72896;BME280;61036;53.224;6.554;2023-04-09T06:14:53;102666.56;;;8.76;100.00
72896;BME280;61036;53.224;6.554;2023-04-09T06:17:18;102667.44;;;8.77;100.00
72896;BME280;61036;53.224;6.554;2023-04-09T06:19:43;102671.19;;;8.73;100.00
72896;BME280;61036;53.224;6.554;2023-04-09T06:22:09;102672.88;;;8.52;100.00
72896;BME280;61036;53.224;6.554;2023-04-09T06:24:37;102675.78;;;8.45;100.00
72896;BME280;61036;53.224;6.554;2023-04-09T06:27:03;102680.03;;;8.51;100.00
72896;BME280;61036;53.224;6.554;2023-04-09T06:29:28;102673.31;;;8.63;100.00
72896;BME280;61036;53.224;6.554;2023-04-09T06:31:54;102677.25;;;8.78;100.00
72896;BME280;61036;53.224;6.554;2023-04-09T06:34:20;102683.69;;;8.97;100.00
72896;BME280;61036;53.224;6.554;2023-04-09T06:36:45;102687.13;;;9.01;100.00
72896;BME280;61036;53.224;6.554;2023-04-09T06:39:11;102678.00;;;9.05;100.00
72896;BME280;61036;53.224;6.554;2023-04-09T06:41:37;102674.16;;;8.88;100.00
72896;BME280;61036;53.224;6.554;2023-04-09T06:44:10;102677.59;;;8.92;100.00
72896;BME280;61036;53.224;6.554;2023-04-09T06:46:36;102682.97;;;8.92;100.00
72896;BME280;61036;53.224;6.554;2023-04-09T06:49:01;102674.03;;;8.91;100.00
72896;BME280;61036;53.224;6.554;2023-04-09T06:51:27;102668.75;;;9.12;100.00
72896;BME280;61036;53.224;6.554;2023-04-09T06:53:52;102667.66;;;8.70;100.00
72896;BME280;61036;53.224;6.554;2023-04-09T06:56:18;102671.28;;;8.69;100.00
72896;BME280;61036;53.224;6.554;2023-04-09T06:58:43;102678.00;;;9.05;100.00
72896;BME280;61036;53.224;6.554;2023-04-09T07:01:09;102667.56;;;9.19;100.00
72896;BME280;61036;53.224;6.554;2023-04-09T07:03:34;102677.69;;;9.12;100.00
72896;BME280;61036;53.224;6.554;2023-04-09T07:06:00;102684.13;;;9.08;100.00
72896;BME280;61036;53.224;6.554;2023-04-09T07:08:25;102683.78;;;9.18;100.00
72896;BME280;61036;53.224;6.554;2023-04-09T07:10:52;102676.81;;;9.12;100.00
72896;BME280;61036;53.224;6.554;2023-04-09T07:13:18;102682.13;;;9.13;100.00
72896;BME280;61036;53.224;6.554;2023-04-09T07:15:43;102688.94;;;9.24;100.00
72896;BME280;61036;53.224;6.554;2023-04-09T07:18:09;102686.63;;;9.36;100.00
72896;BME280;61036;53.224;6.554;2023-04-09T07:20:35;102684.09;;;9.32;100.00
72896;BME280;61036;53.224;6.554;2023-04-09T07:23:00;102685.16;;;9.28;100.00
72896;BME280;61036;53.224;6.554;2023-04-09T07:25:26;102684.59;;;9.42;100.00
72896;BME280;61036;53.224;6.554;2023-04-09T07:27:52;102689.97;;;9.20;100.00
72896;BME280;61036;53.224;6.554;2023-04-09T07:30:17;102693.75;;;8.92;100.00
72896;BME280;61036;53.224;6.554;2023-04-09T07:32:43;102690.41;;;9.09;100.00
72896;BME280;61036;53.224;6.554;2023-04-09T07:35:09;102702.09;;;8.61;100.00
72896;BME280;61036;53.224;6.554;2023-04-09T07:37:35;102692.50;;;9.24;100.00
72896;BME280;61036;53.224;6.554;2023-04-09T07:40:01;102694.31;;;9.46;100.00
72896;BME280;61036;53.224;6.554;2023-04-09T07:42:28;102698.94;;;9.64;100.00
72896;BME280;61036;53.224;6.554;2023-04-09T07:44:54;102692.72;;;9.62;100.00
72896;BME280;61036;53.224;6.554;2023-04-09T07:47:21;102691.22;;;9.77;100.00
72896;BME280;61036;53.224;6.554;2023-04-09T07:49:47;102690.13;;;10.03;100.00
72896;BME280;61036;53.224;6.554;2023-04-09T07:52:13;102688.09;;;9.88;100.00
72896;BME280;61036;53.224;6.554;2023-04-09T07:54:39;102692.34;;;9.93;100.00
72896;BME280;61036;53.224;6.554;2023-04-09T07:57:04;102699.94;;;9.61;100.00
72896;BME280;61036;53.224;6.554;2023-04-09T07:59:31;102698.13;;;10.04;100.00
72896;BME280;61036;53.224;6.554;2023-04-09T08:01:56;102699.19;;;9.58;100.00
72896;BME280;61036;53.224;6.554;2023-04-09T08:04:22;102697.19;;;9.41;100.00
72896;BME280;61036;53.224;6.554;2023-04-09T08:06:47;102691.25;;;9.55;100.00
72896;BME280;61036;53.224;6.554;2023-04-09T08:09:16;102691.91;;;9.82;100.00
72896;BME280;61036;53.224;6.554;2023-04-09T08:11:42;102688.69;;;9.94;100.00
72896;BME280;61036;53.224;6.554;2023-04-09T08:14:10;102698.03;;;9.85;100.00
72896;BME280;61036;53.224;6.554;2023-04-09T08:16:43;102695.13;;;10.12;100.00
72896;BME280;61036;53.224;6.554;2023-04-09T08:19:10;102698.75;;;9.91;100.00
72896;BME280;61036;53.224;6.554;2023-04-09T08:21:40;102699.75;;;9.88;100.00
72896;BME280;61036;53.224;6.554;2023-04-09T08:24:10;102694.47;;;9.85;100.00
72896;BME280;61036;53.224;6.554;2023-04-09T08:26:39;102695.66;;;10.00;100.00
72896;BME280;61036;53.224;6.554;2023-04-09T08:29:05;102691.00;;;10.03;100.00
72896;BME280;61036;53.224;6.554;2023-04-09T08:31:31;102694.97;;;9.95;100.00
72896;BME280;61036;53.224;6.554;2023-04-09T08:33:57;102699.28;;;9.99;100.00
72896;BME280;61036;53.224;6.554;2023-04-09T08:36:22;102693.97;;;10.18;100.00
72896;BME280;61036;53.224;6.554;2023-04-09T08:38:48;102693.81;;;10.00;100.00
72896;BME280;61036;53.224;6.554;2023-04-09T08:41:18;102695.03;;;10.36;100.00
72896;BME280;61036;53.224;6.554;2023-04-09T08:43:46;102690.94;;;10.25;100.00
72896;BME280;61036;53.224;6.554;2023-04-09T08:46:13;102689.47;;;10.59;100.00
72896;BME280;61036;53.224;6.554;2023-04-09T08:48:45;102695.50;;;10.03;100.00
72896;BME280;61036;53.224;6.554;2023-04-09T08:53:48;102686.25;;;10.51;100.00
72896;BME280;61036;53.224;6.554;2023-04-09T08:56:17;102684.97;;;10.79;100.00
72896;BME280;61036;53.224;6.554;2023-04-09T08:58:43;102690.53;;;11.13;100.00
72896;BME280;61036;53.224;6.554;2023-04-09T09:03:56;102684.88;;;10.41;100.00
72896;BME280;61036;53.224;6.554;2023-04-09T09:06:23;102690.81;;;10.28;100.00
72896;BME280;61036;53.224;6.554;2023-04-09T09:09:10;102675.75;;;10.64;100.00
72896;BME280;61036;53.224;6.554;2023-04-09T09:11:38;102679.44;;;10.82;100.00
72896;BME280;61036;53.224;6.554;2023-04-09T09:14:06;102683.03;;;11.20;100.00
72896;BME280;61036;53.224;6.554;2023-04-09T09:16:33;102672.66;;;11.11;100.00
72896;BME280;61036;53.224;6.554;2023-04-09T09:19:00;102675.66;;;11.60;100.00
72896;BME280;61036;53.224;6.554;2023-04-09T09:21:27;102679.53;;;11.54;100.00
72896;BME280;61036;53.224;6.554;2023-04-09T09:23:54;102674.97;;;11.74;100.00
72896;BME280;61036;53.224;6.554;2023-04-09T09:26:24;102674.81;;;11.77;100.00
72896;BME280;61036;53.224;6.554;2023-04-09T09:28:52;102669.88;;;11.67;100.00
72896;BME280;61036;53.224;6.554;2023-04-09T09:31:19;102669.81;;;11.14;100.00
72896;BME280;61036;53.224;6.554;2023-04-09T09:33:45;102674.94;;;11.56;100.00
72896;BME280;61036;53.224;6.554;2023-04-09T09:36:13;102666.81;;;11.20;100.00
72896;BME280;61036;53.224;6.554;2023-04-09T09:38:51;102665.25;;;11.70;100.00
72896;BME280;61036;53.224;6.554;2023-04-09T09:41:18;102667.09;;;11.33;100.00
72896;BME280;61036;53.224;6.554;2023-04-09T09:43:44;102657.19;;;11.51;100.00
72896;BME280;61036;53.224;6.554;2023-04-09T09:46:10;102659.09;;;10.93;100.00
72896;BME280;61036;53.224;6.554;2023-04-09T09:48:36;102665.25;;;11.52;100.00
72896;BME280;61036;53.224;6.554;2023-04-09T09:51:07;102657.69;;;11.95;100.00
72896;BME280;61036;53.224;6.554;2023-04-09T09:53:35;102660.47;;;11.21;100.00
72896;BME280;61036;53.224;6.554;2023-04-09T09:56:01;102655.81;;;11.42;100.00
72896;BME280;61036;53.224;6.554;2023-04-09T09:58:33;102660.63;;;10.99;100.00
72896;BME280;61036;53.224;6.554;2023-04-09T10:01:01;102661.44;;;11.56;100.00
72896;BME280;61036;53.224;6.554;2023-04-09T10:03:33;102654.72;;;11.82;100.00
72896;BME280;61036;53.224;6.554;2023-04-09T10:06:02;102644.16;;;14.18;100.00
72896;BME280;61036;53.224;6.554;2023-04-09T10:08:29;102649.34;;;13.93;100.00
72896;BME280;61036;53.224;6.554;2023-04-09T10:10:55;102650.66;;;13.56;100.00
72896;BME280;61036;53.224;6.554;2023-04-09T10:13:29;102648.00;;;14.00;100.00
72896;BME280;61036;53.224;6.554;2023-04-09T10:15:58;102639.09;;;15.13;100.00
72896;BME280;61036;53.224;6.554;2023-04-09T10:18:24;102629.59;;;18.56;100.00
72896;BME280;61036;53.224;6.554;2023-04-09T10:20:58;102642.13;;;14.22;100.00
72896;BME280;61036;53.224;6.554;2023-04-09T10:23:38;102642.16;;;13.62;100.00
72896;BME280;61036;53.224;6.554;2023-04-09T10:26:04;102638.91;;;13.71;100.00
72896;BME280;61036;53.224;6.554;2023-04-09T10:28:30;102633.97;;;13.00;100.00
72896;BME280;61036;53.224;6.554;2023-04-09T10:30:57;102629.66;;;12.80;100.00
72896;BME280;61036;53.224;6.554;2023-04-09T10:33:24;102620.13;;;13.20;100.00
72896;BME280;61036;53.224;6.554;2023-04-09T10:35:54;102628.63;;;12.67;100.00
72896;BME280;61036;53.224;6.554;2023-04-09T10:38:38;102629.31;;;12.70;100.00
72896;BME280;61036;53.224;6.554;2023-04-09T10:41:06;102622.09;;;12.53;100.00
72896;BME280;61036;53.224;6.554;2023-04-09T10:43:34;102621.13;;;12.88;100.00
72896;BME280;61036;53.224;6.554;2023-04-09T10:46:03;102612.22;;;13.33;100.00
72896;BME280;61036;53.224;6.554;2023-04-09T10:48:32;102607.59;;;13.03;100.00
72896;BME280;61036;53.224;6.554;2023-04-09T10:51:01;102613.28;;;12.50;100.00
72896;BME280;61036;53.224;6.554;2023-04-09T10:53:28;102613.00;;;13.03;100.00
72896;BME280;61036;53.224;6.554;2023-04-09T10:55:54;102612.44;;;13.44;100.00
72896;BME280;61036;53.224;6.554;2023-04-09T10:58:20;102616.25;;;13.26;100.00
72896;BME280;61036;53.224;6.554;2023-04-09T11:00:47;102606.97;;;13.76;100.00
72896;BME280;61036;53.224;6.554;2023-04-09T11:03:25;102604.34;;;14.48;100.00
72896;BME280;61036;53.224;6.554;2023-04-09T11:06:05;102601.22;;;14.11;100.00
72896;BME280;61036;53.224;6.554;2023-04-09T11:08:36;102596.34;;;13.87;100.00
72896;BME280;61036;53.224;6.554;2023-04-09T11:11:06;102594.94;;;13.80;100.00
72896;BME280;61036;53.224;6.554;2023-04-09T11:13:32;102591.50;;;13.62;100.00
72896;BME280;61036;53.224;6.554;2023-04-09T11:15:58;102581.66;;;14.34;100.00
72896;BME280;61036;53.224;6.554;2023-04-09T11:18:27;102575.06;;;14.81;100.00
72896;BME280;61036;53.224;6.554;2023-04-09T11:20:56;102584.28;;;13.77;100.00
72896;BME280;61036;53.224;6.554;2023-04-09T11:23:23;102576.34;;;13.74;100.00
72896;BME280;61036;53.224;6.554;2023-04-09T11:25:51;102566.84;;;13.67;100.00
72896;BME280;61036;53.224;6.554;2023-04-09T11:28:18;102563.69;;;13.89;100.00
72896;BME280;61036;53.224;6.554;2023-04-09T11:30:46;102569.00;;;13.76;100.00
72896;BME280;61036;53.224;6.554;2023-04-09T11:33:13;102565.56;;;14.03;100.00
72896;BME280;61036;53.224;6.554;2023-04-09T11:35:40;102561.94;;;14.88;100.00
72896;BME280;61036;53.224;6.554;2023-04-09T11:38:08;102562.72;;;15.17;100.00
72896;BME280;61036;53.224;6.554;2023-04-09T11:40:35;102559.03;;;15.18;100.00
72896;BME280;61036;53.224;6.554;2023-04-09T11:43:02;102556.69;;;14.99;100.00
72896;BME280;61036;53.224;6.554;2023-04-09T11:45:30;102553.00;;;14.86;100.00
72896;BME280;61036;53.224;6.554;2023-04-09T11:47:58;102547.25;;;14.06;100.00
72896;BME280;61036;53.224;6.554;2023-04-09T11:50:25;102551.78;;;13.91;100.00
72896;BME280;61036;53.224;6.554;2023-04-09T11:52:52;102542.88;;;13.89;100.00
72896;BME280;61036;53.224;6.554;2023-04-09T11:55:23;102541.81;;;13.92;100.00
72896;BME280;61036;53.224;6.554;2023-04-09T11:57:53;102540.66;;;13.82;100.00
72896;BME280;61036;53.224;6.554;2023-04-09T12:00:20;102543.88;;;13.58;100.00
72896;BME280;61036;53.224;6.554;2023-04-09T12:02:48;102539.72;;;14.54;100.00
72896;BME280;61036;53.224;6.554;2023-04-09T12:05:25;102534.44;;;15.47;100.00
72896;BME280;61036;53.224;6.554;2023-04-09T12:07:59;102536.84;;;15.12;100.00
72896;BME280;61036;53.224;6.554;2023-04-09T12:10:30;102531.25;;;14.30;100.00
72896;BME280;61036;53.224;6.554;2023-04-09T12:13:06;102534.56;;;14.07;100.00
72896;BME280;61036;53.224;6.554;2023-04-09T12:15:33;102524.50;;;14.23;100.00
72896;BME280;61036;53.224;6.554;2023-04-09T12:18:00;102527.59;;;14.60;100.00
72896;BME280;61036;53.224;6.554;2023-04-09T12:22:52;102536.56;;;14.46;100.00
72896;BME280;61036;53.224;6.554;2023-04-09T12:25:17;102531.13;;;14.75;100.00
72896;BME280;61036;53.224;6.554;2023-04-09T12:27:42;102530.31;;;14.03;100.00
72896;BME280;61036;53.224;6.554;2023-04-09T12:30:08;102521.28;;;14.59;100.00
72896;BME280;61036;53.224;6.554;2023-04-09T12:32:35;102518.09;;;14.38;100.00
72896;BME280;61036;53.224;6.554;2023-04-09T12:35:01;102522.13;;;14.46;100.00
72896;BME280;61036;53.224;6.554;2023-04-09T12:37:26;102516.03;;;13.85;100.00
72896;BME280;61036;53.224;6.554;2023-04-09T12:39:53;102513.44;;;14.82;100.00
72896;BME280;61036;53.224;6.554;2023-04-09T12:42:18;102514.59;;;14.92;100.00
72896;BME280;61036;53.224;6.554;2023-04-09T12:44:44;102508.25;;;14.64;100.00
72896;BME280;61036;53.224;6.554;2023-04-09T12:47:11;102514.31;;;14.41;100.00
72896;BME280;61036;53.224;6.554;2023-04-09T12:49:36;102517.34;;;14.78;100.00
72896;BME280;61036;53.224;6.554;2023-04-09T12:52:03;102505.19;;;15.38;100.00
72896;BME280;61036;53.224;6.554;2023-04-09T12:54:29;102518.50;;;15.28;100.00
72896;BME280;61036;53.224;6.554;2023-04-09T12:56:55;102505.00;;;15.66;100.00
72896;BME280;61036;53.224;6.554;2023-04-09T12:59:20;102510.91;;;15.33;100.00
72896;BME280;61036;53.224;6.554;2023-04-09T13:01:46;102511.31;;;14.87;100.00